Time;durP1;ratioP1;P1;durP2;ratioP2;P2;SDS_P1;SDS_P2;PMS_P1;PMS_P2;Temp;Humidity;BMP_temperature;BMP_pressure;BME280_temperature;BME280_humidity;BME280_pressure;Samples;Min_cycle;Max_cycle;Signal;HPM_P1;HPM_P2
2024/03/19 00:00:59;;;;;;;0.30;0.30;;;;;;;6.40;100.00;99498.56;5050203;28;20466;-57
2024/03/19 00:03:26;;;;;;;0.40;0.40;;;;;;;6.46;100.00;99495.06;5056244;28;20261;-58
2024/03/19 00:05:53;;;;;;;0.38;0.38;;;;;;;6.34;100.00;99502.06;5049487;28;20472;-58
2024/03/19 00:08:22;;;;;;;0.30;0.30;;;;;;;6.38;100.00;99498.78;5053739;28;20053;-58
2024/03/19 00:10:49;;;;;;;0.50;0.50;;;;;;;6.41;100.00;99497.53;5063374;28;20141;-58
2024/03/19 00:13:16;;;;;;;0.38;0.38;;;;;;;6.34;100.00;99499.38;5057342;28;20189;-57
2024/03/19 00:15:45;;;;;;;0.40;0.40;;;;;;;6.39;100.00;99499.59;5056602;28;20090;-60
2024/03/19 00:18:12;;;;;;;0.25;0.25;;;;;;;6.32;100.00;99507.59;5057943;28;20052;-57
2024/03/19 00:20:41;;;;;;;0.43;0.43;;;;;;;6.33;100.00;99500.44;5062005;28;20040;-58
2024/03/19 00:23:08;;;;;;;0.30;0.30;;;;;;;6.40;100.00;99495.91;5061241;28;20048;-58
2024/03/19 00:25:36;;;;;;;0.30;0.30;;;;;;;6.31;100.00;99497.97;5053778;28;20138;-58
2024/03/19 00:28:03;;;;;;;0.40;0.40;;;;;;;6.08;100.00;99500.25;5058411;28;20040;-58
2024/03/19 00:30:30;;;;;;;0.30;0.30;;;;;;;6.25;100.00;99499.63;5057486;28;20067;-57
2024/03/19 00:32:57;;;;;;;0.35;0.35;;;;;;;6.33;100.00;99503.09;5056692;28;20442;-57
2024/03/19 00:35:24;;;;;;;0.40;0.40;;;;;;;6.10;100.00;99509.69;5044959;28;20132;-58
2024/03/19 00:37:52;;;;;;;0.30;0.30;;;;;;;6.15;100.00;99509.88;5054382;28;20045;-57
2024/03/19 00:40:19;;;;;;;0.32;0.32;;;;;;;6.15;100.00;99512.53;5053893;28;20040;-57
2024/03/19 00:42:47;;;;;;;0.50;0.50;;;;;;;6.12;100.00;99510.28;5057776;28;20044;-57
2024/03/19 00:45:14;;;;;;;0.40;0.40;;;;;;;6.12;100.00;99507.63;5054970;28;20071;-57
2024/03/19 00:47:41;;;;;;;0.35;0.35;;;;;;;6.25;100.00;99501.47;5058694;28;20114;-58
2024/03/19 00:50:10;;;;;;;0.30;0.30;;;;;;;6.14;100.00;99502.09;5065150;28;20040;-57
2024/03/19 00:52:37;;;;;;;0.38;0.38;;;;;;;6.02;100.00;99504.56;5059723;28;20130;-57
2024/03/19 00:55:04;;;;;;;0.32;0.32;;;;;;;5.90;100.00;99506.19;5058229;28;20052;-57
2024/03/19 00:57:32;;;;;;;0.40;0.40;;;;;;;5.65;100.00;99505.97;5066358;28;20039;-58
2024/03/19 01:00:00;;;;;;;0.40;0.40;;;;;;;5.59;100.00;99505.78;5054833;28;20099;-57
2024/03/19 01:02:27;;;;;;;0.45;0.45;;;;;;;5.88;100.00;99502.91;5053443;28;20167;-57
2024/03/19 01:04:54;;;;;;;0.38;0.38;;;;;;;5.84;100.00;99497.16;5051877;28;20051;-58
2024/03/19 01:07:21;;;;;;;0.40;0.40;;;;;;;5.86;100.00;99489.00;5050807;28;20766;-58
2024/03/19 01:09:48;;;;;;;0.50;0.50;;;;;;;6.13;100.00;99489.81;5054676;28;20048;-57
2024/03/19 01:12:15;;;;;;;0.40;0.40;;;;;;;6.04;100.00;99492.69;5048266;28;20135;-57
2024/03/19 01:14:41;;;;;;;0.43;0.43;;;;;;;5.97;100.00;99491.06;5061210;28;20040;-57
2024/03/19 01:17:09;;;;;;;0.35;0.35;;;;;;;6.00;100.00;99482.66;5053648;28;20055;-58
2024/03/19 01:19:36;;;;;;;0.40;0.40;;;;;;;5.93;100.00;99479.16;5057591;28;20448;-58
2024/03/19 01:22:05;;;;;;;0.40;0.40;;;;;;;6.13;100.00;99479.97;5052088;28;20036;-57
2024/03/19 01:24:34;;;;;;;0.40;0.40;;;;;;;6.26;100.00;99479.97;5051937;28;20048;-57
2024/03/19 01:27:01;;;;;;;0.32;0.32;;;;;;;6.03;100.00;99487.56;5055313;28;20048;-57
2024/03/19 01:29:29;;;;;;;0.38;0.38;;;;;;;5.76;100.00;99479.56;5053803;28;21001;-57
2024/03/19 01:31:56;;;;;;;0.40;0.40;;;;;;;5.73;100.00;99476.50;5053884;28;20044;-57
2024/03/19 01:34:24;;;;;;;0.47;0.47;;;;;;;5.69;100.00;99484.09;5050619;28;20063;-58
2024/03/19 01:36:51;;;;;;;0.40;0.40;;;;;;;5.51;100.00;99483.84;5065183;28;20433;-58
2024/03/19 01:39:22;;;;;;;0.40;0.40;;;;;;;5.29;100.00;99484.06;5061544;28;20076;-57
2024/03/19 01:41:49;;;;;;;0.40;0.40;;;;;;;5.19;100.00;99478.28;5050014;28;20082;-58
2024/03/19 01:44:17;;;;;;;0.40;0.40;;;;;;;5.16;100.00;99473.38;5053378;28;20492;-58
2024/03/19 01:46:44;;;;;;;0.40;0.40;;;;;;;5.26;100.00;99479.13;5058598;28;20043;-58
2024/03/19 01:49:11;;;;;;;0.30;0.30;;;;;;;5.08;100.00;99463.75;5047967;28;20160;-58
2024/03/19 01:51:40;;;;;;;0.40;0.40;;;;;;;5.09;100.00;99472.53;5059894;28;20036;-57
2024/03/19 01:54:07;;;;;;;0.32;0.32;;;;;;;5.44;100.00;99475.06;5051384;28;20124;-59
2024/03/19 01:56:34;;;;;;;0.40;0.40;;;;;;;5.48;100.00;99471.78;5055020;28;20040;-57
2024/03/19 01:59:01;;;;;;;0.40;0.40;;;;;;;5.58;100.00;99471.41;5054562;28;20787;-57
2024/03/19 02:01:28;;;;;;;0.37;0.37;;;;;;;5.54;100.00;99472.81;5015857;28;1161046;-57
2024/03/19 02:03:55;;;;;;;0.40;0.40;;;;;;;5.60;100.00;99469.34;5053779;28;20513;-57
2024/03/19 02:06:23;;;;;;;0.40;0.40;;;;;;;5.70;100.00;99469.75;5050088;28;20150;-55
2024/03/19 02:09:04;;;;;;;0.40;0.40;;;;;;;5.86;100.00;99473.03;5058953;28;20410;-56
2024/03/19 02:11:31;;;;;;;0.30;0.30;;;;;;;5.76;100.00;99479.56;5056106;28;20113;-57
2024/03/19 02:13:58;;;;;;;0.40;0.40;;;;;;;5.43;100.00;99481.41;5055950;28;20040;-57
2024/03/19 02:16:25;;;;;;;0.47;0.47;;;;;;;5.11;100.00;99475.81;5058445;28;20494;-57
2024/03/19 02:18:56;;;;;;;0.35;0.35;;;;;;;4.65;100.00;99479.16;5058668;28;20045;-57
2024/03/19 02:21:23;;;;;;;0.30;0.30;;;;;;;4.88;100.00;99473.50;5049171;28;20049;-57
2024/03/19 02:23:52;;;;;;;0.45;0.45;;;;;;;5.01;100.00;99470.06;5059737;28;20113;-57
2024/03/19 02:26:19;;;;;;;0.30;0.30;;;;;;;5.06;100.00;99467.63;5053377;28;20049;-57
2024/03/19 02:28:46;;;;;;;0.30;0.30;;;;;;;4.93;100.00;99465.75;5059509;28;20048;-57
2024/03/19 02:31:13;;;;;;;0.50;0.50;;;;;;;4.56;100.00;99461.75;5053707;28;20400;-57
2024/03/19 02:33:40;;;;;;;0.40;0.40;;;;;;;4.10;100.00;99458.66;5055094;28;20643;-57
2024/03/19 02:36:07;;;;;;;0.40;0.40;;;;;;;4.10;100.00;99456.00;5047531;28;20052;-57
2024/03/19 02:38:34;;;;;;;0.40;0.40;;;;;;;4.37;100.00;99448.19;5054506;28;20139;-57
2024/03/19 02:41:03;;;;;;;0.50;0.50;;;;;;;4.72;100.00;99448.13;5055530;28;20102;-57
2024/03/19 02:43:30;;;;;;;0.40;0.40;;;;;;;4.71;100.00;99454.44;5051658;28;20041;-57
2024/03/19 02:45:57;;;;;;;0.40;0.40;;;;;;;4.82;100.00;99455.69;5050129;28;20071;-56
2024/03/19 02:48:24;;;;;;;0.30;0.30;;;;;;;4.64;100.00;99454.44;5052652;28;20426;-57
2024/03/19 02:50:51;;;;;;;0.40;0.40;;;;;;;4.56;100.00;99456.44;5065390;28;20137;-57
2024/03/19 02:53:20;;;;;;;0.40;0.40;;;;;;;4.63;100.00;99455.44;5061202;28;20131;-58
2024/03/19 02:55:49;;;;;;;0.47;0.47;;;;;;;4.76;100.00;99454.66;5064374;28;20028;-57
2024/03/19 02:58:18;;;;;;;0.30;0.30;;;;;;;4.90;100.00;99453.69;5048995;28;20118;-58
2024/03/19 03:00:45;;;;;;;0.40;0.40;;;;;;;4.71;100.00;99454.44;5056853;28;20139;-57
2024/03/19 03:03:12;;;;;;;0.40;0.40;;;;;;;4.80;100.00;99453.25;5060442;28;20056;-58
2024/03/19 03:05:39;;;;;;;0.35;0.35;;;;;;;4.88;100.00;99450.41;5055729;28;20032;-57
2024/03/19 03:08:07;;;;;;;0.50;0.50;;;;;;;4.98;100.00;99450.84;5050782;28;20044;-58
2024/03/19 03:10:34;;;;;;;0.40;0.40;;;;;;;4.86;100.00;99456.94;5056231;28;20043;-58
2024/03/19 03:13:01;;;;;;;0.47;0.47;;;;;;;4.71;100.00;99452.59;5050280;28;20138;-58
2024/03/19 03:15:29;;;;;;;0.50;0.50;;;;;;;4.37;100.00;99456.16;5052389;28;20037;-57
2024/03/19 03:17:55;;;;;;;0.40;0.40;;;;;;;4.60;100.00;99463.00;5054181;28;20393;-57
2024/03/19 03:20:22;;;;;;;0.32;0.32;;;;;;;4.61;100.00;99456.66;5046148;28;20671;-58
2024/03/19 03:22:49;;;;;;;0.47;0.47;;;;;;;4.67;100.00;99453.22;5051641;28;20092;-58
2024/03/19 03:25:16;;;;;;;0.50;0.50;;;;;;;4.75;100.00;99455.69;5057412;28;20473;-58
2024/03/19 03:27:44;;;;;;;0.50;0.50;;;;;;;4.67;100.00;99453.22;5057860;28;20069;-58
2024/03/19 03:30:11;;;;;;;0.50;0.50;;;;;;;4.61;100.00;99462.78;5048500;28;20050;-57
2024/03/19 03:32:40;;;;;;;0.47;0.47;;;;;;;4.44;100.00;99459.66;5053257;28;20135;-58
2024/03/19 03:35:07;;;;;;;0.50;0.50;;;;;;;4.22;100.00;99460.75;5059943;28;20065;-57
2024/03/19 03:37:34;;;;;;;0.40;0.40;;;;;;;4.52;100.00;99456.84;5060171;28;20047;-58
2024/03/19 03:40:08;;;;;;;0.47;0.47;;;;;;;4.60;100.00;99460.34;5054884;28;20049;-58
2024/03/19 03:42:35;;;;;;;0.40;0.40;;;;;;;4.30;100.00;99457.94;5061225;28;20079;-57
2024/03/19 03:45:02;;;;;;;0.45;0.45;;;;;;;4.60;100.00;99463.00;5054182;28;20048;-57
2024/03/19 03:47:30;;;;;;;0.40;0.40;;;;;;;4.58;100.00;99460.53;5058663;28;20108;-57
2024/03/19 03:49:58;;;;;;;0.40;0.40;;;;;;;4.87;100.00;99462.06;5050949;28;20051;-57
2024/03/19 03:52:29;;;;;;;0.47;0.47;;;;;;;4.75;100.00;99466.31;5052570;28;20132;-58
2024/03/19 03:54:56;;;;;;;0.40;0.40;;;;;;;4.68;100.00;99470.78;5063302;28;20044;-57
2024/03/19 03:57:23;;;;;;;0.50;0.50;;;;;;;4.42;100.00;99472.31;5031460;28;20049;-57
2024/03/19 03:59:51;;;;;;;0.50;0.50;;;;;;;4.26;100.00;99464.66;5048296;28;20574;-57
2024/03/19 04:02:18;;;;;;;0.50;0.50;;;;;;;4.53;100.00;99463.78;5049474;28;20056;-58
2024/03/19 04:04:45;;;;;;;0.40;0.40;;;;;;;4.60;100.00;99466.47;5059922;28;20049;-57
2024/03/19 04:07:13;;;;;;;0.30;0.30;;;;;;;4.56;100.00;99473.16;5050793;28;20141;-57
2024/03/19 04:09:40;;;;;;;0.50;0.50;;;;;;;4.63;100.00;99465.25;5054146;28;20075;-57
2024/03/19 04:12:07;;;;;;;0.50;0.50;;;;;;;4.62;100.00;99467.09;5057313;28;20051;-57
2024/03/19 04:14:34;;;;;;;0.52;0.52;;;;;;;4.68;100.00;99465.47;5060402;28;20159;-57
2024/03/19 04:17:02;;;;;;;0.40;0.40;;;;;;;4.65;100.00;99472.00;5046095;28;20537;-58
2024/03/19 04:19:29;;;;;;;0.40;0.40;;;;;;;4.71;100.00;99470.38;5048962;28;20052;-58
2024/03/19 04:21:56;;;;;;;0.30;0.30;;;;;;;4.78;100.00;99471.22;5047400;28;20080;-58
2024/03/19 04:24:24;;;;;;;0.43;0.43;;;;;;;4.76;100.00;99473.25;5049880;28;20098;-58
2024/03/19 04:26:51;;;;;;;0.47;0.47;;;;;;;4.78;100.00;99479.19;5056600;28;20040;-57
2024/03/19 04:29:18;;;;;;;0.40;0.40;;;;;;;4.83;100.00;99476.75;5058269;28;20119;-57
2024/03/19 04:31:45;;;;;;;0.40;0.40;;;;;;;4.75;100.00;99484.91;5053236;28;20048;-57
2024/03/19 04:34:12;;;;;;;0.50;0.50;;;;;;;4.61;100.00;99483.22;5053163;28;20052;-58
2024/03/19 04:36:39;;;;;;;0.32;0.32;;;;;;;4.33;100.00;99479.59;5049553;28;20124;-58
2024/03/19 04:39:10;;;;;;;0.47;0.47;;;;;;;4.62;100.00;99482.16;5053139;28;20605;-57
2024/03/19 04:41:39;;;;;;;0.40;0.40;;;;;;;4.78;100.00;99475.72;5056673;28;20052;-57
2024/03/19 04:44:06;;;;;;;0.40;0.40;;;;;;;4.82;100.00;99472.47;5055343;28;20044;-57
2024/03/19 04:46:33;;;;;;;0.40;0.40;;;;;;;4.69;100.00;99477.72;5054795;28;20478;-57
2024/03/19 04:49:00;;;;;;;0.40;0.40;;;;;;;4.75;100.00;99471.63;5052727;28;20231;-57
2024/03/19 04:51:28;;;;;;;0.40;0.40;;;;;;;4.98;100.00;99488.03;5054473;28;20147;-58
2024/03/19 04:53:54;;;;;;;0.47;0.47;;;;;;;4.89;100.00;99477.78;5056092;28;20064;-58
2024/03/19 04:56:22;;;;;;;0.50;0.50;;;;;;;4.94;100.00;99484.16;5051509;28;20083;-58
2024/03/19 04:58:51;;;;;;;0.43;0.43;;;;;;;4.97;100.00;99491.72;5059626;28;20067;-57
2024/03/19 05:01:18;;;;;;;0.40;0.40;;;;;;;4.93;100.00;99495.78;5051825;28;20041;-58
2024/03/19 05:03:45;;;;;;;0.40;0.40;;;;;;;4.82;100.00;99493.72;5060513;28;20123;-57
2024/03/19 05:06:12;;;;;;;0.50;0.50;;;;;;;4.67;100.00;99493.88;5060162;28;20044;-58
2024/03/19 05:08:40;;;;;;;0.50;0.50;;;;;;;4.69;100.00;99501.63;5051023;28;20135;-58
2024/03/19 05:11:07;;;;;;;0.43;0.43;;;;;;;4.87;100.00;99503.75;5050258;28;20664;-57
2024/03/19 05:13:34;;;;;;;0.40;0.40;;;;;;;5.03;100.00;99494.59;5057201;28;20041;-57
2024/03/19 05:16:03;;;;;;;0.43;0.43;;;;;;;5.03;100.00;99489.28;5057238;28;20127;-57
2024/03/19 05:18:30;;;;;;;0.40;0.40;;;;;;;4.98;100.00;99497.84;5047400;28;20839;-57
2024/03/19 05:20:59;;;;;;;0.50;0.50;;;;;;;5.43;100.00;99489.38;5055857;28;20984;-58
2024/03/19 05:23:26;;;;;;;0.40;0.40;;;;;;;5.48;100.00;99495.72;5058972;28;20074;-58
2024/03/19 05:25:54;;;;;;;0.43;0.43;;;;;;;5.41;100.00;99493.03;5056959;28;20037;-58
2024/03/19 05:28:21;;;;;;;0.40;0.40;;;;;;;5.38;100.00;99498.78;5043357;28;20103;-58
2024/03/19 05:30:48;;;;;;;0.40;0.40;;;;;;;5.36;100.00;99494.69;5054572;28;20131;-57
2024/03/19 05:33:17;;;;;;;0.40;0.40;;;;;;;5.25;100.00;99503.25;5058823;28;20056;-58
2024/03/19 05:35:44;;;;;;;0.50;0.50;;;;;;;5.26;100.00;99505.69;5049236;28;20151;-57
2024/03/19 05:38:12;;;;;;;0.40;0.40;;;;;;;5.12;100.00;99504.03;5051016;28;20045;-58
2024/03/19 05:40:39;;;;;;;0.40;0.40;;;;;;;5.09;100.00;99504.41;5053320;28;20048;-58
2024/03/19 05:43:07;;;;;;;0.40;0.40;;;;;;;5.01;100.00;99513.38;5055042;28;20132;-58
2024/03/19 05:45:34;;;;;;;0.40;0.40;;;;;;;5.08;100.00;99516.06;5052700;28;20091;-57
2024/03/19 05:48:02;;;;;;;0.30;0.30;;;;;;;5.14;100.00;99523.25;5053443;28;20040;-58
2024/03/19 05:50:32;;;;;;;0.40;0.40;;;;;;;5.22;100.00;99527.56;5055696;28;20045;-57
2024/03/19 05:53:01;;;;;;;0.45;0.45;;;;;;;4.95;100.00;99533.59;5070149;28;20530;-58
2024/03/19 05:55:31;;;;;;;0.40;0.40;;;;;;;4.61;100.00;99528.34;5057290;28;20449;-59
2024/03/19 05:57:58;;;;;;;0.47;0.47;;;;;;;4.72;100.00;99538.41;5054357;28;20477;-58
2024/03/19 06:00:25;;;;;;;0.40;0.40;;;;;;;4.75;100.00;99535.38;5048558;28;20106;-58
2024/03/19 06:02:52;;;;;;;0.40;0.40;;;;;;;4.82;100.00;99541.53;5051117;28;20194;-58
2024/03/19 06:05:19;;;;;;;0.40;0.40;;;;;;;5.00;100.00;99537.50;5053892;28;20064;-58
2024/03/19 06:07:47;;;;;;;0.38;0.38;;;;;;;4.95;100.00;99538.91;5050971;28;20036;-58
2024/03/19 06:10:14;;;;;;;0.38;0.38;;;;;;;5.08;100.00;99546.13;5057591;28;20052;-58
2024/03/19 06:12:41;;;;;;;0.50;0.50;;;;;;;5.09;100.00;99546.94;5063912;28;20036;-58
2024/03/19 06:15:10;;;;;;;0.50;0.50;;;;;;;5.07;100.00;99549.00;5053354;28;20080;-58
2024/03/19 06:17:37;;;;;;;0.30;0.30;;;;;;;5.09;100.00;99544.28;5056406;28;20135;-58
2024/03/19 06:20:08;;;;;;;0.40;0.40;;;;;;;5.21;100.00;99544.53;5058136;28;20032;-58
2024/03/19 06:22:35;;;;;;;0.40;0.40;;;;;;;5.20;100.00;99554.34;5049744;28;20480;-59
2024/03/19 06:25:05;;;;;;;0.40;0.40;;;;;;;5.30;100.00;99553.97;5053049;28;20480;-58
2024/03/19 06:27:32;;;;;;;0.40;0.40;;;;;;;5.33;100.00;99543.75;5055016;28;20047;-58
2024/03/19 06:29:59;;;;;;;0.50;0.50;;;;;;;5.41;100.00;99556.03;5047593;28;20052;-58
2024/03/19 06:32:26;;;;;;;0.43;0.43;;;;;;;5.41;100.00;99561.34;5059869;28;20037;-58
2024/03/19 06:34:54;;;;;;;0.40;0.40;;;;;;;5.43;100.00;99563.81;5054341;28;20044;-58
2024/03/19 06:37:21;;;;;;;0.40;0.40;;;;;;;5.53;100.00;99566.91;5049403;28;20049;-58
2024/03/19 06:39:49;;;;;;;0.40;0.40;;;;;;;5.57;100.00;99562.84;5062151;28;20060;-58
2024/03/19 06:42:17;;;;;;;0.50;0.50;;;;;;;5.60;100.00;99562.41;5055176;28;20160;-58
2024/03/19 06:44:44;;;;;;;0.50;0.50;;;;;;;5.51;100.00;99566.28;5054259;28;20036;-58
2024/03/19 06:47:11;;;;;;;0.40;0.40;;;;;;;5.44;100.00;99562.78;5055923;28;20045;-58
2024/03/19 06:49:39;;;;;;;0.30;0.30;;;;;;;5.58;100.00;99567.13;5051422;28;20148;-58
2024/03/19 06:52:06;;;;;;;0.40;0.40;;;;;;;5.58;100.00;99567.13;5053719;28;20068;-58
2024/03/19 06:54:33;;;;;;;0.32;0.32;;;;;;;5.75;100.00;99565.72;5059738;28;20036;-58
2024/03/19 06:57:00;;;;;;;0.40;0.40;;;;;;;5.87;100.00;99573.09;5050629;28;20040;-58
2024/03/19 06:59:29;;;;;;;0.38;0.38;;;;;;;6.04;100.00;99566.38;5051996;28;20667;-58
2024/03/19 07:01:56;;;;;;;0.40;0.40;;;;;;;6.19;100.00;99568.81;5055816;28;20051;-57
2024/03/19 07:04:27;;;;;;;0.40;0.40;;;;;;;6.19;100.00;99568.81;5056457;28;20713;-59
2024/03/19 07:06:54;;;;;;;0.40;0.40;;;;;;;6.18;100.00;99573.34;5052927;28;20128;-58
2024/03/19 07:09:24;;;;;;;0.40;0.40;;;;;;;6.04;100.00;99582.34;5053775;28;20594;-58
2024/03/19 07:11:51;;;;;;;0.40;0.40;;;;;;;6.16;100.00;99579.88;5059446;28;20048;-58
2024/03/19 07:14:18;;;;;;;0.50;0.50;;;;;;;6.53;100.00;99580.28;5067465;28;20075;-58
2024/03/19 07:16:47;;;;;;;0.40;0.40;;;;;;;6.73;100.00;99577.56;5050678;28;20137;-57
2024/03/19 07:19:14;;;;;;;0.40;0.40;;;;;;;6.85;100.00;99579.38;5055082;28;20044;-58
2024/03/19 07:21:41;;;;;;;0.30;0.30;;;;;;;7.30;100.00;99581.28;5048068;28;20119;-58
2024/03/19 07:24:08;;;;;;;0.30;0.30;;;;;;;7.24;100.00;99590.09;5051085;28;20059;-58
2024/03/19 07:26:36;;;;;;;0.40;0.40;;;;;;;7.44;100.00;99584.66;5055585;28;21047;-58
2024/03/19 07:29:03;;;;;;;0.40;0.40;;;;;;;7.44;100.00;99593.50;5052663;28;20058;-58
2024/03/19 07:31:30;;;;;;;0.40;0.40;;;;;;;7.74;100.00;99595.59;5063536;28;20501;-58
2024/03/19 07:33:59;;;;;;;0.40;0.40;;;;;;;8.00;100.00;99599.94;5050633;28;20832;-58
2024/03/19 07:36:26;;;;;;;0.30;0.30;;;;;;;8.25;100.00;99599.13;5055102;28;20785;-58
2024/03/19 07:38:53;;;;;;;0.30;0.30;;;;;;;8.16;100.00;99606.59;5046365;28;20051;-58
2024/03/19 07:41:20;;;;;;;0.30;0.30;;;;;;;8.09;100.00;99598.66;5049561;28;20100;-58
2024/03/19 07:43:48;;;;;;;0.25;0.25;;;;;;;8.00;100.00;99595.41;5059230;28;20054;-58
2024/03/19 07:46:16;;;;;;;0.30;0.30;;;;;;;8.25;100.00;99599.94;5053532;28;20520;-58
2024/03/19 07:48:43;;;;;;;0.30;0.30;;;;;;;8.40;100.00;99600.47;5051079;28;20532;-58
2024/03/19 07:51:11;;;;;;;0.30;0.30;;;;;;;8.46;100.00;99605.97;5049689;28;20388;-58
2024/03/19 07:53:38;;;;;;;0.30;0.30;;;;;;;8.48;100.00;99604.72;5051798;28;20040;-58
2024/03/19 07:56:06;;;;;;;0.32;0.32;;;;;;;8.38;100.00;99613.19;5055166;28;20114;-58
2024/03/19 07:58:33;;;;;;;0.20;0.20;;;;;;;8.42;100.00;99605.59;5054942;28;20065;-58
2024/03/19 08:01:00;;;;;;;0.40;0.40;;;;;;;8.39;100.00;99612.19;5056663;28;20128;-58
2024/03/19 08:03:27;;;;;;;0.20;0.20;;;;;;;8.45;100.00;99615.03;5050631;28;20076;-58
2024/03/19 08:05:58;;;;;;;0.30;0.30;;;;;;;8.25;100.00;99618.63;5051645;28;20036;-58
2024/03/19 08:08:26;;;;;;;0.20;0.20;;;;;;;7.96;100.00;99615.59;5057928;28;20043;-58
2024/03/19 08:10:53;;;;;;;0.30;0.30;;;;;;;8.23;100.00;99628.72;5047565;28;20045;-58
2024/03/19 08:13:21;;;;;;;0.28;0.28;;;;;;;8.53;100.00;99628.09;5057229;28;20137;-58
2024/03/19 08:15:48;;;;;;;0.30;0.30;;;;;;;8.74;100.00;99619.69;5053271;28;20036;-58
2024/03/19 08:18:15;;;;;;;0.20;0.20;;;;;;;8.71;100.00;99624.63;5048500;28;20133;-58
2024/03/19 08:20:43;;;;;;;0.20;0.20;;;;;;;8.76;100.00;99628.31;5059709;28;20037;-58
2024/03/19 08:23:13;;;;;;;0.30;0.30;;;;;;;8.65;100.00;99629.00;5054493;28;20056;-58
2024/03/19 08:25:41;;;;;;;0.35;0.35;;;;;;;8.92;100.00;99639.47;5051137;28;20049;-58
2024/03/19 08:28:08;;;;;;;0.30;0.30;;;;;;;8.66;100.00;99627.97;5051528;28;20040;-58
2024/03/19 08:30:35;;;;;;;0.20;0.20;;;;;;;8.83;100.00;99639.72;5051674;28;20044;-58
2024/03/19 08:33:03;;;;;;;0.30;0.30;;;;;;;9.13;100.00;99638.19;5054099;28;20380;-58
2024/03/19 08:35:30;;;;;;;0.25;0.25;;;;;;;9.26;100.00;99638.88;5051977;28;20061;-58
2024/03/19 08:37:57;;;;;;;0.20;0.20;;;;;;;9.11;100.00;99641.09;5059393;28;20041;-58
2024/03/19 08:40:25;;;;;;;0.28;0.28;;;;;;;9.07;100.00;99637.22;5053097;28;20118;-58
2024/03/19 08:42:53;;;;;;;0.20;0.20;;;;;;;9.35;100.00;99638.56;5046078;28;20418;-58
2024/03/19 08:45:23;;;;;;;0.20;0.20;;;;;;;9.70;100.00;99644.09;5056225;28;20632;-58
2024/03/19 08:47:51;;;;;;;0.30;0.30;;;;;;;9.56;100.00;99647.97;5054347;28;20157;-58
2024/03/19 08:50:18;;;;;;;0.20;0.20;;;;;;;9.85;100.00;99641.00;5055774;28;20141;-58
2024/03/19 08:52:46;;;;;;;0.20;0.20;;;;;;;10.07;100.00;99636.75;5058345;28;20099;-58
2024/03/19 08:55:13;;;;;;;0.20;0.20;;;;;;;10.38;100.00;99644.78;5056888;28;20205;-58
2024/03/19 08:57:40;;;;;;;0.30;0.30;;;;;;;10.37;100.00;99643.97;5051587;28;20052;-58
2024/03/19 09:00:11;;;;;;;0.20;0.20;;;;;;;10.43;100.00;99652.94;5061014;28;20522;-58
2024/03/19 09:02:38;;;;;;;0.28;0.28;;;;;;;10.70;100.00;99648.75;5058125;28;20056;-58
2024/03/19 09:05:06;;;;;;;0.20;0.20;;;;;;;10.82;100.00;99648.75;5050429;28;20065;-58
2024/03/19 09:07:33;;;;;;;0.20;0.20;;;;;;;10.54;100.00;99658.31;5053515;28;20384;-58
2024/03/19 09:10:00;;;;;;;0.20;0.20;;;;;;;10.50;100.00;99659.00;5050682;28;20049;-58
2024/03/19 09:12:27;;;;;;;0.20;0.20;;;;;;;10.94;100.00;99657.63;5052816;28;20739;-58
2024/03/19 09:14:54;;;;;;;0.20;0.20;;;;;;;10.62;100.00;99662.50;5055521;28;20078;-58
2024/03/19 09:17:22;;;;;;;0.20;0.20;;;;;;;10.82;100.00;99662.16;5057011;28;20571;-58
2024/03/19 09:19:49;;;;;;;0.20;0.20;;;;;;;11.19;100.00;99660.03;5055551;28;20136;-58
2024/03/19 09:22:16;;;;;;;0.20;0.20;;;;;;;11.52;100.00;99660.44;5059522;28;20127;-59
2024/03/19 09:24:43;;;;;;;0.20;0.20;;;;;;;11.15;100.00;99658.06;5045093;28;20085;-58
2024/03/19 09:27:10;;;;;;;0.30;0.30;;;;;;;10.95;100.00;99667.28;5054108;28;20091;-58
2024/03/19 09:29:37;;;;;;;0.20;0.20;;;;;;;10.89;100.00;99662.06;5054899;28;20560;-58
2024/03/19 09:32:05;;;;;;;0.10;0.10;;;;;;;11.18;100.00;99662.94;5052145;28;20090;-58
2024/03/19 09:34:34;;;;;;;0.10;0.10;;;;;;;11.40;100.00;99658.59;5051790;28;20142;-58
2024/03/19 09:37:01;;;;;;;0.20;0.20;;;;;;;11.63;100.00;99662.25;5055815;28;20164;-58
2024/03/19 09:39:29;;;;;;;0.20;0.20;;;;;;;11.84;100.00;99664.28;5056997;28;20094;-58
2024/03/19 09:42:02;;;;;;;0.17;0.17;;;;;;;12.01;100.00;99663.56;5058591;28;20050;-58
2024/03/19 09:44:30;;;;;;;0.20;0.20;;;;;;;12.01;100.00;99669.75;5053572;28;20056;-58
2024/03/19 09:46:58;;;;;;;0.20;0.20;;;;;;;12.09;100.00;99671.22;5053837;28;20491;-57
2024/03/19 09:49:28;;;;;;;0.20;0.20;;;;;;;12.40;100.00;99672.56;5059653;28;20288;-57
2024/03/19 09:51:56;;;;;;;;;;;;;;;12.14;100.00;99667.81;5052526;28;20036;-58
2024/03/19 09:54:23;;;;;;;0.15;0.15;;;;;;;12.64;100.00;99673.22;5048920;28;19940;-58
2024/03/19 09:56:50;;;;;;;0.10;0.10;;;;;;;12.77;100.00;99672.06;5051243;28;20041;-57
2024/03/19 09:59:18;;;;;;;0.10;0.10;;;;;;;12.67;100.00;99672.72;5055861;28;20487;-57
2024/03/19 10:01:45;;;;;;;0.10;0.10;;;;;;;13.32;100.00;99668.56;5048769;28;20044;-57
2024/03/19 10:04:12;;;;;;;0.10;0.10;;;;;;;13.38;99.46;99661.38;5052686;28;20052;-57
2024/03/19 10:06:39;;;;;;;0.10;0.10;;;;;;;13.30;99.30;99659.09;5054116;28;20040;-57
2024/03/19 10:09:08;;;;;;;0.10;0.10;;;;;;;13.04;100.00;99660.63;5056359;28;20501;-58
2024/03/19 10:11:36;;;;;;;0.10;0.10;;;;;;;12.49;100.00;99651.47;5047862;28;20051;-57
2024/03/19 10:14:03;;;;;;;0.10;0.10;;;;;;;12.66;100.00;99652.28;5062083;28;20048;-57
2024/03/19 10:16:30;;;;;;;0.20;0.20;;;;;;;12.94;100.00;99661.28;5056441;28;20072;-57
2024/03/19 10:18:57;;;;;;;0.13;0.13;;;;;;;13.05;100.00;99646.09;5045179;28;20037;-57
2024/03/19 10:21:26;;;;;;;0.20;0.20;;;;;;;12.98;100.00;99643.59;5051830;28;20052;-57
2024/03/19 10:23:53;;;;;;;0.17;0.17;;;;;;;12.98;100.00;99635.53;5054942;28;20048;-57
2024/03/19 10:26:21;;;;;;;0.20;0.20;;;;;;;13.78;97.89;99627.91;5064075;28;20561;-59
2024/03/19 10:28:48;;;;;;;0.20;0.20;;;;;;;14.08;95.25;99621.16;5057456;28;20071;-57
2024/03/19 10:31:16;;;;;;;0.20;0.20;;;;;;;14.67;91.72;99623.81;5045261;28;20072;-59
2024/03/19 10:33:44;;;;;;;0.20;0.20;;;;;;;14.48;93.16;99612.63;5050739;28;20037;-57
2024/03/19 10:36:19;;;;;;;0.20;0.20;;;;;;;14.84;92.43;99613.69;5051571;28;20540;-57
2024/03/19 10:38:46;;;;;;;0.20;0.20;;;;;;;14.66;92.13;99619.50;5062550;28;20044;-58
2024/03/19 10:41:13;;;;;;;0.20;0.20;;;;;;;15.11;91.43;99618.16;5056702;28;20044;-58
2024/03/19 10:43:41;;;;;;;0.10;0.10;;;;;;;15.53;88.80;99611.84;5051622;28;20090;-57
2024/03/19 10:46:08;;;;;;;0.10;0.10;;;;;;;16.33;86.17;99606.84;5054162;28;20727;-58
2024/03/19 10:48:35;;;;;;;0.10;0.10;;;;;;;14.96;91.97;99604.59;5045850;28;20205;-58
2024/03/19 10:51:02;;;;;;;0.10;0.10;;;;;;;15.85;86.08;99606.28;5053405;28;20114;-58
2024/03/19 10:53:31;;;;;;;0.10;0.10;;;;;;;16.08;87.56;99599.53;5062144;28;20509;-57
2024/03/19 10:55:59;;;;;;;0.10;0.10;;;;;;;16.28;85.32;99603.34;5050083;28;20124;-58
2024/03/19 10:58:26;;;;;;;0.10;0.10;;;;;;;16.24;84.96;99607.66;5054388;28;20043;-58
2024/03/19 11:00:55;;;;;;;0.10;0.10;;;;;;;16.14;88.15;99606.56;5048691;28;20056;-58
2024/03/19 11:03:22;;;;;;;0.15;0.15;;;;;;;15.97;89.72;99616.81;5055431;28;20061;-58
2024/03/19 11:05:51;;;;;;;0.10;0.10;;;;;;;16.14;91.25;99609.25;5050092;28;20041;-58
2024/03/19 11:08:18;;;;;;;0.10;0.10;;;;;;;15.75;92.43;99606.25;5061456;28;20102;-58
2024/03/19 11:10:45;;;;;;;0.10;0.10;;;;;;;15.86;90.75;99607.88;5055557;28;20538;-58
2024/03/19 11:13:13;;;;;;;0.10;0.10;;;;;;;16.44;87.38;99612.25;5057002;28;20052;-58
2024/03/19 11:15:42;;;;;;;0.10;0.10;;;;;;;15.43;90.52;99609.13;5040958;28;20048;-58
2024/03/19 11:18:19;;;;;;;0.10;0.10;;;;;;;15.68;88.84;99611.88;5047223;28;20481;-58
2024/03/19 11:20:51;;;;;;;0.10;0.10;;;;;;;16.14;88.20;99613.88;5034495;28;20045;-58
2024/03/19 11:23:20;;;;;;;0.10;0.10;;;;;;;17.18;82.79;99616.19;5055484;28;20044;-58
2024/03/19 11:25:48;;;;;;;0.10;0.10;;;;;;;17.16;81.55;99608.31;5052200;28;20032;-58
2024/03/19 11:28:22;;;;;;;0.10;0.10;;;;;;;16.69;85.32;99603.28;5051520;28;20063;-58
2024/03/19 11:30:54;;;;;;;0.10;0.10;;;;;;;17.59;77.53;99602.44;5061387;28;20037;-58
2024/03/19 11:33:23;;;;;;;0.20;0.20;;;;;;;16.28;83.86;99600.63;5054678;28;20045;-57